中部国際空港の過去48時間の天気

中部国際空港 (Chubu Centrair International)

現在時刻: 12/15 21:52 JST (12/15 12:52 UTC) 以下の時間は現地時間です。

過去48時間のMETAR気象情報
時間 風向 風速(m/s) 視程 気温(℃) 湿度(%) 気圧(hPa) 天気現象
15 21:30 北北西 6 10km以上 7 49 1029
15 21:00 北北西 7 10km以上 6 45 1028
15 20:30 北北西 6 10km以上 6 52 1028
15 20:00 北北西 7 10km以上 6 52 1028
15 19:30 北北西 7 10km以上 7 49 1028
15 19:00 7 10km以上 6 52 1028
15 18:30 北北西 8 10km以上 7 49 1028
15 18:00 9 10km以上 7 45 1028
15 17:30 北北西 9 10km以上 7 42 1028
15 17:00 北北西 9 10km以上 8 46 1027
15 16:30 北北西 10 10km以上 8 49 1027
15 16:00 11 10km以上 8 46 1027
15 15:30 北北西 10 10km以上 8 42 1027
15 15:00 北北西 10 10km以上 9 50 1027
15 14:30 北西 11 10km以上 9 50 1027
15 14:00 北北西 9 10km以上 8 46 1027
15 13:30 9 10km以上 8 42 1027
15 13:00 北西 10 10km以上 9 46 1027
15 12:30 北西 7 10km以上 9 46 1027
15 12:00 北西 8 10km以上 9 50 1027
15 11:30 北西 7 10km以上 9 50 1028
15 11:00 北北西 7 10km以上 8 49 1028
15 10:30 北北西 7 10km以上 8 49 1028
15 10:00 北北西 7 10km以上 7 49 1028
15 09:30 北北西 8 10km以上 7 53 1029
15 09:00 北北西 7 10km以上 7 61 1028
15 08:30 北北西 7 10km以上 7 53 1028
15 08:00 北北西 7 10km以上 6 61 1028
15 07:30 北西 7 10km以上 7 61 1028
15 07:00 北北西 7 10km以上 7 61 1027
15 06:30 北北西 7 10km以上 6 61 1027
15 06:00 5 10km以上 6 61 1027
15 05:30 北北西 6 10km以上 5 61 1027
15 05:00 北北西 5 10km以上 5 61 1027
15 04:30 6 10km以上 5 56 1027
15 04:00 7 10km以上 5 52 1026
15 03:30 7 10km以上 4 56 1026
15 03:00 7 10km以上 4 56 1027
15 02:30 7 10km以上 5 52 1027
15 02:00 7 10km以上 5 52 1026
15 01:30 7 10km以上 5 52 1027
15 01:00 6 10km以上 5 52 1026
15 00:30 7 10km以上 5 52 1026
15 00:00 6 10km以上 5 56 1026
14 23:30 5 10km以上 5 52 1026
14 23:00 6 10km以上 5 56 1026
14 22:30 7 10km以上 5 65 1026
14 22:00 北北西 8 10km以上 5 65 1026
14 21:30 9 10km以上 5 56 1026
14 21:00 8 10km以上 5 56 1026
14 20:30 北北西 8 10km以上 6 57 1026
14 20:00 北北西 8 10km以上 6 61 1026
14 19:30 9 10km以上 6 52 1026
14 19:00 北北西 9 10km以上 7 57 1025
14 18:30 北北西 9 10km以上 7 61 1025
14 18:00 北北西 10 10km以上 8 57 1025
14 17:30 北北西 9 10km以上 8 53 1025
14 17:00 北北西 10 10km以上 7 49 1024
14 16:30 北北西 11 10km以上 8 49 1024
14 16:00 北北西 11 10km以上 9 50 1024
14 15:30 北北西 10 10km以上 9 53 1023
14 15:00 北西 12 10km以上 9 53 1023
14 14:30 北西 13 10km以上 9 57 1023
14 14:00 北西 12 10km以上 9 53 1023
14 13:30 北北西 11 10km以上 9 53 1023
14 13:00 北北西 10 10km以上 10 46 1023
14 12:30 北北西 12 10km以上 9 46 1023
14 12:00 北北西 11 10km以上 9 50 1023
14 11:30 北北西 10 10km以上 8 53 1024
14 11:00 北北西 11 10km以上 10 50 1024
14 10:30 北北西 11 10km以上 9 57 1024
14 10:00 北北西 12 10km以上 9 57 1024
14 09:30 北北西 11 10km以上 9 57 1024
14 09:00 北西 10 10km以上 9 66 1024
14 08:30 北西 11 10km以上 9 62 1024
14 08:00 北西 12 10km以上 9 66 1023
14 07:30 北西 10 10km以上 8 66 1023
14 07:00 西北西 10 10km以上 8 76 1023
14 06:30 西北西 11 10km以上 8 76 1022
14 06:00 西北西 13 10km以上 9 71 1022 周辺でしゅう雨
14 05:30 西北西 11 10km以上 8 71 1021 周辺でしゅう雨
14 05:00 北西 11 10km以上 8 71 1022
14 04:30 北西 9 10km以上 9 62 1021 周辺でしゅう雨
14 04:00 北西 9 10km以上 9 62 1021
14 03:30 西 11 10km以上 9 62 1021
14 03:00 西 11 10km以上 9 57 1022
14 02:30 西 12 10km以上 9 62 1021
14 02:00 西 13 10km以上 9 57 1021
14 01:30 西 11 10km以上 10 54 1021
14 01:00 西 10 10km以上 9 62 1021
14 00:30 西 11 10km以上 10 58 1021
14 00:00 西 9 10km以上 10 58 1021
13 23:30 西 8 10km以上 9 62 1021
13 23:00 西 9 10km以上 10 62 1021
13 22:30 西 8 10km以上 10 66 1021
13 22:00 西 8 10km以上 10 62 1021
RJGG 151230Z 33011KT 9999 FEW020 07/M03 Q1029 NOSIG
RJGG 151200Z 33013KT 290V360 9999 FEW020 06/M05 Q1028 NOSIG
RJGG 151130Z 34012KT 9999 FEW020 06/M03 Q1028 NOSIG
RJGG 151100Z 33013KT 9999 FEW020 06/M03 Q1028 NOSIG
RJGG 151030Z 34014KT 9999 FEW020 07/M03 Q1028 NOSIG
RJGG 151000Z 35014KT 9999 FEW020 06/M03 Q1028 NOSIG
RJGG 150930Z 33016KT 9999 FEW020 07/M03 Q1028 NOSIG
RJGG 150900Z 35017KT 9999 FEW020 07/M04 Q1028 NOSIG
RJGG 150830Z 33018KT 9999 FEW020 07/M05 Q1028 NOSIG
RJGG 150800Z 34017KT 9999 FEW020 08/M03 Q1027 NOSIG
RJGG 150730Z 33019KT 9999 FEW020 08/M02 Q1027 NOSIG
RJGG 150700Z 35022KT 9999 FEW020 08/M03 Q1027 NOSIG
RJGG 150630Z 34020KT 9999 FEW020 08/M04 Q1027 NOSIG
RJGG 150600Z 33019KT 9999 FEW020 SCT050 09/M01 Q1027 NOSIG
RJGG 150530Z 32021KT 9999 FEW020 SCT050 09/M01 Q1027 NOSIG
RJGG 150500Z 34017KT 310V020 9999 FEW020 BKN050 08/M03 Q1027 NOSIG
RJGG 150430Z 35018KT 9999 FEW020 BKN050 08/M04 Q1027 NOSIG
RJGG 150400Z 31019KT 9999 FEW020 BKN050 09/M02 Q1027 NOSIG
RJGG 150330Z 31014KT 9999 FEW020 BKN060 09/M02 Q1027 NOSIG
RJGG 150300Z 32015KT 9999 FEW020 BKN060 09/M01 Q1027 NOSIG
RJGG 150230Z 32014KT 9999 FEW020 SCT060 09/M01 Q1028 NOSIG
RJGG 150200Z 33014KT 9999 FEW020 SCT060 08/M02 Q1028 NOSIG
RJGG 150130Z 33014KT 9999 FEW020 SCT060 08/M02 Q1028 NOSIG
RJGG 150100Z 34014KT 9999 FEW020 BKN060 07/M03 Q1028 NOSIG
RJGG 150030Z 33015KT 9999 FEW030 BKN060 07/M02 Q1029 NOSIG
RJGG 150000Z 33014KT 9999 FEW030 BKN060 07/M00 Q1028 NOSIG
RJGG 142330Z 34013KT 9999 FEW030 BKN060 07/M02 Q1028 NOSIG
RJGG 142300Z 34013KT 9999 FEW030 BKN060 06/M01 Q1028 NOSIG
RJGG 142230Z 32014KT 9999 FEW030 BKN060 07/M00 Q1028 NOSIG
RJGG 142200Z 33014KT 9999 FEW030 BKN060 07/M00 Q1027 NOSIG
RJGG 142130Z 33013KT 9999 FEW030 SCT050 06/M01 Q1027 NOSIG
RJGG 142100Z 35010KT 9999 FEW030 BKN070 06/M01 Q1027 NOSIG
RJGG 142030Z 34011KT 310V010 9999 FEW030 BKN070 05/M02 Q1027 NOSIG
RJGG 142000Z 34010KT 9999 FEW030 BKN070 05/M02 Q1027 NOSIG
RJGG 141930Z 35012KT 9999 FEW030 BKN070 05/M03 Q1027 NOSIG
RJGG 141900Z 35013KT 9999 FEW030 BKN080 05/M04 Q1026 NOSIG
RJGG 141830Z 35013KT 9999 FEW030 SCT070 04/M04 Q1026 NOSIG
RJGG 141800Z 36014KT 9999 FEW030 SCT080 04/M04 Q1027 NOSIG
RJGG 141730Z 36014KT 9999 FEW030 BKN080 05/M04 Q1027 NOSIG
RJGG 141700Z 36013KT 9999 FEW030 05/M04 Q1026 NOSIG
RJGG 141630Z 36014KT 9999 FEW030 BKN060 05/M04 Q1027 NOSIG
RJGG 141600Z 35012KT 9999 FEW030 SCT070 05/M04 Q1026 NOSIG
RJGG 141530Z 35013KT 9999 FEW030 BKN080 05/M04 Q1026 NOSIG
RJGG 141500Z 35012KT 9999 FEW030 05/M03 Q1026 NOSIG
RJGG 141430Z 35010KT 9999 FEW030 SCT080 05/M04 Q1026 NOSIG
RJGG 141400Z 35011KT 9999 FEW030 05/M03 Q1026 NOSIG
RJGG 141330Z 35014KT 9999 FEW030 05/M01 Q1026 NOSIG
RJGG 141300Z 34016KT 9999 FEW030 05/M01 Q1026 NOSIG
RJGG 141230Z 36017KT 9999 FEW030 05/M03 Q1026 NOSIG
RJGG 141200Z 35015KT 9999 FEW030 05/M03 Q1026 NOSIG
RJGG 141130Z 34016KT 9999 FEW030 06/M02 Q1026 NOSIG
RJGG 141100Z 33016KT 9999 FEW030 06/M01 Q1026 NOSIG
RJGG 141030Z 35017KT 9999 FEW030 06/M03 Q1026 NOSIG
RJGG 141000Z 33018KT 9999 FEW030 07/M01 Q1025 NOSIG
RJGG 140930Z 33018KT 9999 FEW030 07/M00 Q1025 NOSIG
RJGG 140900Z 33019KT 9999 FEW030 08/00 Q1025 NOSIG
RJGG 140830Z 33018KT 9999 FEW030 08/M01 Q1025 NOSIG
RJGG 140800Z 33019KT 9999 FEW030 07/M03 Q1024 NOSIG
RJGG 140730Z 33022KT 9999 FEW030 08/M02 Q1024 NOSIG
RJGG 140700Z 34021KT 9999 FEW030 09/M01 Q1024 NOSIG
RJGG 140630Z 33020KT 9999 FEW030 SCT060 09/M00 Q1023 NOSIG
RJGG 140600Z 32023KT 9999 FEW030 SCT050 09/M00 Q1023 NOSIG
RJGG 140530Z 32026KT 9999 FEW030 BKN050 09/01 Q1023 NOSIG
RJGG 140500Z 31024G34KT 9999 FEW030 SCT050 09/00 Q1023 NOSIG
RJGG 140430Z 34022KT 9999 FEW030 SCT060 09/M00 Q1023 NOSIG
RJGG 140400Z 34019KT 9999 FEW030 SCT060 10/M01 Q1023 NOSIG
RJGG 140330Z 34023KT 9999 FEW030 SCT050 09/M02 Q1023 NOSIG
RJGG 140300Z 34021KT 9999 FEW020 SCT050 09/M01 Q1023 NOSIG
RJGG 140230Z 34019KT 9999 FEW020 SCT050 08/M01 Q1024 NOSIG
RJGG 140200Z 33021KT 9999 FEW020 SCT040 10/M00 Q1024 NOSIG
RJGG 140130Z 34022KT 9999 FEW020 SCT030 09/01 Q1024 NOSIG
RJGG 140100Z 33023KT 9999 FEW020 09/01 Q1024 NOSIG
RJGG 140030Z 33021KT 9999 FEW020 09/01 Q1024 NOSIG
RJGG 140000Z 32020KT 9999 FEW020 09/03 Q1024 NOSIG
RJGG 132330Z 32022KT 9999 FEW020 09/02 Q1024 NOSIG
RJGG 132300Z 31023KT 9999 FEW015 09/03 Q1023 NOSIG
RJGG 132230Z 32020KT 9999 FEW015 08/02 Q1023 NOSIG
RJGG 132200Z 30019KT 9999 FEW020 08/04 Q1023 NOSIG
RJGG 132130Z 29022KT 9999 FEW020 08/04 Q1022 NOSIG
RJGG 132100Z 30025KT 9999 VCSH FEW020 09/04 Q1022 NOSIG
RJGG 132030Z 30022KT 9999 VCSH FEW020 08/03 Q1021 NOSIG
RJGG 132000Z 31021KT 9999 FEW020 SCT060 08/03 Q1022 NOSIG
RJGG 131930Z 31017KT 9999 VCSH FEW020 BKN060 09/02 Q1021 NOSIG
RJGG 131900Z 31018KT 9999 FEW020 BKN050 09/02 Q1021 NOSIG
RJGG 131830Z 28021KT 9999 FEW020 BKN045 09/02 Q1021 NOSIG
RJGG 131800Z 28022KT 9999 FEW030 BKN050 09/01 Q1022 NOSIG
RJGG 131730Z 28024KT 9999 FEW030 09/02 Q1021 NOSIG
RJGG 131700Z 28025KT 9999 FEW030 09/01 Q1021 NOSIG
RJGG 131630Z 28021KT 9999 FEW030 10/01 Q1021 NOSIG
RJGG 131600Z 28020KT 9999 FEW030 09/02 Q1021 NOSIG
RJGG 131530Z 27022KT 9999 FEW030 10/02 Q1021 NOSIG
RJGG 131500Z 27018KT 9999 FEW030 10/02 Q1021 NOSIG
RJGG 131430Z 26015KT 9999 FEW030 09/02 Q1021 BECMG 28018KT
RJGG 131400Z 26018KT 9999 FEW030 SCT070 10/03 Q1021 BECMG 28018KT
RJGG 131330Z 27016KT 9999 FEW030 10/04 Q1021 NOSIG
RJGG 131300Z 27015KT 9999 FEW030 10/03 Q1021 NOSIG